createdAt,value
2017-08-18T00:01:07.543Z,100430.39
2017-08-18T00:03:34.992Z,100426.78
2017-08-18T00:06:02.480Z,100426.55
2017-08-18T00:08:29.972Z,100419.53
2017-08-18T00:10:57.441Z,100417.48
2017-08-18T00:13:24.942Z,100418.62
2017-08-18T00:15:52.427Z,100419.29
2017-08-18T00:18:19.875Z,100429.20
2017-08-18T00:20:47.374Z,100427.05
2017-08-18T00:23:14.916Z,100421.60
2017-08-18T00:25:42.506Z,100420.66
2017-08-18T00:28:10.040Z,100415.42
2017-08-18T00:30:37.604Z,100414.70
2017-08-18T00:33:05.173Z,100414.34
2017-08-18T00:35:32.745Z,100410.33
2017-08-18T00:38:00.936Z,100413.84
2017-08-18T00:40:28.395Z,100417.30
2017-08-18T00:42:55.868Z,100418.80
2017-08-18T00:45:23.378Z,100415.47
2017-08-18T00:47:50.879Z,100418.91
2017-08-18T00:50:18.332Z,100419.64
2017-08-18T00:52:45.815Z,100413.91
2017-08-18T00:55:13.264Z,100409.87
2017-08-18T00:57:40.834Z,100413.80
2017-08-18T01:00:08.276Z,100408.22
2017-08-18T01:02:35.857Z,100407.35
2017-08-18T01:05:03.312Z,100416.01
2017-08-18T01:07:30.871Z,100416.69
2017-08-18T01:09:58.338Z,100414.40
2017-08-18T01:12:25.893Z,100413.38
2017-08-18T01:14:53.371Z,100408.52
2017-08-18T01:17:20.891Z,100403.45
2017-08-18T01:19:48.355Z,100399.98
2017-08-18T01:22:15.819Z,100408.75
2017-08-18T01:24:43.389Z,100410.20
2017-08-18T01:27:10.933Z,100414.55
2017-08-18T01:29:38.486Z,100413.20
2017-08-18T01:32:05.949Z,100411.62
2017-08-18T01:34:33.507Z,100409.64
2017-08-18T01:37:00.967Z,100406.46
2017-08-18T01:39:28.444Z,100414.25
2017-08-18T01:41:55.902Z,100402.59
2017-08-18T01:44:23.361Z,100402.64
2017-08-18T01:46:50.902Z,100404.59
2017-08-18T01:49:18.451Z,100406.34
2017-08-18T01:51:45.950Z,100403.09
2017-08-18T01:54:13.489Z,100397.75
2017-08-18T01:56:40.963Z,100389.66
2017-08-18T01:59:08.431Z,100385.11
2017-08-18T02:01:35.917Z,100389.69
2017-08-18T02:04:03.374Z,100398.48
2017-08-18T02:06:30.903Z,100398.16
2017-08-18T02:09:33.740Z,100390.19
2017-08-18T02:12:01.225Z,100383.80
2017-08-18T02:14:28.755Z,100387.70
2017-08-18T02:16:56.875Z,100390.17
2017-08-18T02:19:24.339Z,100392.28
2017-08-18T02:21:51.818Z,100385.80
2017-08-18T02:24:19.292Z,100385.09
2017-08-18T02:26:46.767Z,100378.55
2017-08-18T02:29:14.340Z,100376.28
2017-08-18T02:31:41.822Z,100364.63
2017-08-18T02:34:09.270Z,100354.12
2017-08-18T02:36:36.749Z,100358.34
2017-08-18T02:39:04.209Z,100350.94
2017-08-18T02:41:31.696Z,100354.72
2017-08-18T02:43:59.181Z,100352.28
2017-08-18T02:46:26.711Z,100354.72
2017-08-18T02:48:54.189Z,100360.77
2017-08-18T02:51:21.728Z,100358.39
2017-08-18T02:53:49.231Z,100351.38
2017-08-18T02:56:16.710Z,100354.00
2017-08-18T02:58:44.183Z,100351.85
2017-08-18T03:01:11.630Z,100357.31
2017-08-18T03:03:39.222Z,100369.69
2017-08-18T03:06:06.673Z,100369.16
2017-08-18T03:08:34.153Z,100367.01
2017-08-18T03:11:01.633Z,100369.08
2017-08-18T03:13:29.117Z,100375.72
2017-08-18T03:15:56.607Z,100369.94
2017-08-18T03:18:24.170Z,100369.44
2017-08-18T03:20:51.619Z,100368.11
2017-08-18T03:23:19.171Z,100364.97
2017-08-18T03:25:46.639Z,100360.20
2017-08-18T03:28:14.191Z,100363.67
2017-08-18T03:30:41.664Z,100363.09
2017-08-18T03:33:09.111Z,100354.75
2017-08-18T03:35:36.710Z,100362.56
2017-08-18T03:38:04.216Z,100358.98
2017-08-18T03:40:32.340Z,100354.83
2017-08-18T03:42:59.793Z,100350.70
2017-08-18T03:45:27.325Z,100347.95
2017-08-18T03:47:54.783Z,100333.51
2017-08-18T03:50:22.317Z,100345.90
2017-08-18T03:52:49.767Z,100346.30
2017-08-18T03:55:17.327Z,100348.29
2017-08-18T03:57:44.788Z,100346.05
2017-08-18T04:00:12.287Z,100339.20
2017-08-18T04:02:39.750Z,100339.57
2017-08-18T04:05:07.206Z,100344.34
2017-08-18T04:07:34.697Z,100338.03
2017-08-18T04:10:02.152Z,100337.61
2017-08-18T04:12:29.727Z,100342.53
2017-08-18T04:14:57.184Z,100335.39
2017-08-18T04:17:24.658Z,100331.44
2017-08-18T04:19:52.104Z,100318.75
2017-08-18T04:22:19.597Z,100315.91
2017-08-18T04:24:47.089Z,100321.29
2017-08-18T04:27:14.574Z,100326.96
2017-08-18T04:29:42.068Z,100327.39
2017-08-18T04:32:09.575Z,100316.34
2017-08-18T04:34:37.916Z,100316.19
2017-08-18T04:37:05.425Z,100313.98
2017-08-18T04:39:32.876Z,100309.75
2017-08-18T04:42:00.437Z,100305.03
2017-08-18T04:44:27.913Z,100311.41
2017-08-18T04:46:55.428Z,100317.03
2017-08-18T04:49:22.878Z,100330.69
2017-08-18T04:51:50.373Z,100317.31
2017-08-18T04:54:17.831Z,100314.36
2017-08-18T04:56:45.313Z,100323.54
2017-08-18T04:59:13.070Z,100323.37
2017-08-18T05:01:40.528Z,100325.21
2017-08-18T05:04:08.002Z,100323.80
2017-08-18T05:06:35.509Z,100320.83
2017-08-18T05:09:02.990Z,100315.00
2017-08-18T05:11:30.479Z,100316.62
2017-08-18T05:13:57.985Z,100315.86
2017-08-18T05:16:25.439Z,100305.03
2017-08-18T05:18:53.001Z,100306.22
2017-08-18T05:21:20.447Z,100291.62
2017-08-18T05:23:47.932Z,100289.33
2017-08-18T05:26:15.481Z,100292.34
2017-08-18T05:28:43.032Z,100286.04
2017-08-18T05:31:10.591Z,100283.89
2017-08-18T05:33:38.120Z,100290.75
2017-08-18T05:36:05.660Z,100289.22
2017-08-18T05:38:33.145Z,100302.64
2017-08-18T05:41:00.606Z,100288.72
2017-08-18T05:43:28.103Z,100297.08
2017-08-18T05:45:55.555Z,100299.48
2017-08-18T05:48:23.029Z,100297.58
2017-08-18T05:50:50.511Z,100302.30
2017-08-18T05:53:18.030Z,100301.66
2017-08-18T05:55:45.522Z,100310.64
2017-08-18T05:58:12.984Z,100316.36
2017-08-18T06:00:40.494Z,100320.11
2017-08-18T06:03:07.951Z,100306.00
2017-08-18T06:05:35.430Z,100302.75
2017-08-18T06:08:02.953Z,100304.10
2017-08-18T06:10:31.707Z,100311.78
2017-08-18T06:12:59.341Z,100308.53
2017-08-18T06:15:26.823Z,100303.34
2017-08-18T06:17:54.278Z,100311.28
2017-08-18T06:20:21.781Z,100317.17
2017-08-18T06:22:49.672Z,100313.60
2017-08-18T06:25:17.147Z,100313.22
2017-08-18T06:27:44.596Z,100316.15
2017-08-18T06:30:12.099Z,100315.47
2017-08-18T06:32:39.545Z,100325.56
2017-08-18T06:35:07.016Z,100318.95
2017-08-18T06:37:34.520Z,100311.62
2017-08-18T06:40:02.146Z,100311.84
2017-08-18T06:42:29.660Z,100320.42
2017-08-18T06:44:57.713Z,100312.16
2017-08-18T06:47:25.179Z,100309.38
2017-08-18T06:49:52.631Z,100307.10
2017-08-18T06:52:20.429Z,100298.93
2017-08-18T06:54:47.889Z,100286.27
2017-08-18T06:57:15.457Z,100282.60
2017-08-18T06:59:43.028Z,100268.31
2017-08-18T07:02:10.605Z,100266.66
2017-08-18T07:04:38.126Z,100262.95
2017-08-18T07:07:05.679Z,100259.18
2017-08-18T07:09:33.161Z,100276.67
2017-08-18T07:12:00.658Z,100268.98
2017-08-18T07:14:28.117Z,100265.05
2017-08-18T07:16:55.569Z,100265.86
2017-08-18T07:19:23.044Z,100271.45
2017-08-18T07:21:50.509Z,100267.39
2017-08-18T07:24:17.995Z,100269.22
2017-08-18T07:26:45.444Z,100277.16
2017-08-18T07:29:12.916Z,100287.46
2017-08-18T07:31:40.367Z,100283.08
2017-08-18T07:34:07.860Z,100279.02
2017-08-18T07:36:35.363Z,100284.02
2017-08-18T07:39:02.831Z,100274.03
2017-08-18T07:41:30.299Z,100274.47
2017-08-18T07:43:57.847Z,100273.86
2017-08-18T07:46:25.319Z,100270.84
2017-08-18T07:48:52.854Z,100267.08
2017-08-18T07:51:20.310Z,100274.28
2017-08-18T07:53:47.793Z,100274.03
2017-08-18T07:56:15.379Z,100271.13
2017-08-18T07:58:42.900Z,100274.54
2017-08-18T08:01:10.461Z,100281.92
2017-08-18T08:03:37.931Z,100283.27
2017-08-18T08:06:05.464Z,100279.45
2017-08-18T08:08:33.215Z,100286.41
2017-08-18T08:11:00.672Z,100279.85
2017-08-18T08:13:28.146Z,100264.09
2017-08-18T08:15:55.657Z,100264.48
2017-08-18T08:18:23.183Z,100267.17
2017-08-18T08:20:50.726Z,100269.66
2017-08-18T08:23:18.222Z,100273.11
2017-08-18T08:25:45.690Z,100269.74
2017-08-18T08:28:13.141Z,100267.09
2017-08-18T08:30:40.637Z,100273.06
2017-08-18T08:33:08.108Z,100272.14
2017-08-18T08:35:35.656Z,100278.17
2017-08-18T08:38:03.099Z,100272.66
2017-08-18T08:40:30.579Z,100273.89
2017-08-18T08:42:58.044Z,100275.84
2017-08-18T08:45:25.569Z,100285.09
2017-08-18T08:47:53.098Z,100289.78
2017-08-18T08:50:20.723Z,100294.60
2017-08-18T08:52:48.192Z,100303.34
2017-08-18T08:55:15.707Z,100295.74
2017-08-18T08:57:43.201Z,100299.34
2017-08-18T09:00:10.745Z,100293.37
2017-08-18T09:02:38.199Z,100287.64
2017-08-18T09:05:05.658Z,100280.84
2017-08-18T09:07:33.208Z,100282.81
2017-08-18T09:10:00.716Z,100289.69
2017-08-18T09:12:28.236Z,100290.03
2017-08-18T09:14:55.778Z,100277.59
2017-08-18T09:17:23.258Z,100275.58
2017-08-18T09:19:50.833Z,100260.22
2017-08-18T09:22:18.713Z,100256.83
2017-08-18T09:24:46.196Z,100256.52
2017-08-18T09:27:13.803Z,100249.19
2017-08-18T09:29:41.263Z,100240.35
2017-08-18T09:32:08.862Z,100244.03
2017-08-18T09:34:36.351Z,100236.73
2017-08-18T09:37:04.145Z,100232.09
2017-08-18T09:39:32.997Z,100229.69
2017-08-18T09:42:04.074Z,100229.98
2017-08-18T09:44:31.655Z,100227.16
2017-08-18T09:46:59.118Z,100227.46
2017-08-18T09:49:38.517Z,100222.59
2017-08-18T09:55:15.704Z,100204.60
2017-08-18T10:00:44.781Z,100209.31
2017-08-18T10:03:12.275Z,100200.14
2017-08-18T10:05:39.715Z,100194.33
2017-08-18T10:08:07.166Z,100190.28
2017-08-18T10:10:35.453Z,100187.43
2017-08-18T10:13:02.971Z,100188.19
2017-08-18T10:15:30.476Z,100184.05
2017-08-18T10:17:57.943Z,100182.83
2017-08-18T10:20:25.488Z,100179.70
2017-08-18T10:22:53.099Z,100170.70
2017-08-18T10:25:23.178Z,100174.75
2017-08-18T10:27:50.736Z,100167.20
2017-08-18T10:30:18.271Z,100168.20
2017-08-18T10:32:45.739Z,100164.36
2017-08-18T10:35:13.384Z,100160.30
2017-08-18T10:37:40.873Z,100153.09
2017-08-18T10:40:08.428Z,100150.86
2017-08-18T10:42:37.352Z,100149.34
2017-08-18T10:45:08.486Z,100139.47
2017-08-18T10:47:38.425Z,100138.96
2017-08-18T10:50:07.426Z,100126.23
2017-08-18T10:52:37.123Z,100121.53
2017-08-18T10:55:04.740Z,100127.14
2017-08-18T10:57:32.283Z,100120.64
2017-08-18T10:59:59.734Z,100115.61
2017-08-18T11:02:27.301Z,100118.07
2017-08-18T11:04:54.751Z,100110.32
2017-08-18T11:07:22.223Z,100109.02
2017-08-18T11:09:49.676Z,100102.59
2017-08-18T11:12:17.260Z,100093.60
2017-08-18T11:14:44.794Z,100101.63
2017-08-18T11:17:12.294Z,100104.63
2017-08-18T11:19:39.753Z,100104.00
2017-08-18T11:22:07.261Z,100088.77
2017-08-18T11:24:34.731Z,100079.47
2017-08-18T11:27:02.288Z,100074.44
2017-08-18T11:29:29.853Z,100075.61
2017-08-18T11:31:57.345Z,100077.51
2017-08-18T11:34:24.808Z,100087.91
2017-08-18T11:36:52.283Z,100081.49
2017-08-18T11:39:19.739Z,100081.57
2017-08-18T11:41:47.227Z,100073.89
2017-08-18T11:44:14.794Z,100069.53
2017-08-18T11:46:42.305Z,100058.67
2017-08-18T11:49:09.847Z,100052.03
2017-08-18T11:51:37.304Z,100057.23
2017-08-18T11:54:04.791Z,100051.58
2017-08-18T11:56:32.266Z,100047.61
2017-08-18T11:58:59.758Z,100050.45
2017-08-18T12:01:27.223Z,100043.44
2017-08-18T12:03:54.742Z,100040.52
2017-08-18T12:06:22.371Z,100034.75
2017-08-18T12:08:49.947Z,100025.72
2017-08-18T12:11:17.419Z,100042.20
2017-08-18T12:13:44.924Z,100054.50
2017-08-18T12:16:12.380Z,100051.34
2017-08-18T12:18:40.087Z,100055.55
2017-08-18T12:21:07.555Z,100054.07
2017-08-18T12:23:35.121Z,100051.93
2017-08-18T12:26:02.579Z,100043.19
2017-08-18T12:28:30.045Z,100032.52
2017-08-18T12:30:57.935Z,100037.37
2017-08-18T12:33:25.401Z,100027.55
2017-08-18T12:35:52.875Z,100017.78
2017-08-18T12:38:20.469Z,100015.99
2017-08-18T12:40:47.947Z,100015.79
2017-08-18T12:43:15.467Z,100018.86
2017-08-18T12:45:43.063Z,100006.69
2017-08-18T12:48:10.579Z,100004.81
2017-08-18T12:50:38.071Z,99990.48
2017-08-18T12:53:05.524Z,100005.47
2017-08-18T12:55:33.022Z,100000.77
2017-08-18T12:58:00.713Z,99993.09
2017-08-18T13:00:28.205Z,99989.18
2017-08-18T13:02:55.665Z,99985.23
2017-08-18T13:05:23.144Z,99985.23
2017-08-18T13:07:50.601Z,99979.69
2017-08-18T13:10:18.130Z,99969.66
2017-08-18T13:12:45.629Z,99964.68
2017-08-18T13:15:13.140Z,99962.73
2017-08-18T13:17:40.643Z,99957.63
2017-08-18T13:20:08.084Z,99944.20
2017-08-18T13:22:35.588Z,99936.30
2017-08-18T13:25:03.054Z,99941.13
2017-08-18T13:27:30.532Z,99938.80
2017-08-18T13:29:58.064Z,99939.19
2017-08-18T13:32:25.557Z,99927.34
2017-08-18T13:34:53.077Z,99933.00
2017-08-18T13:37:20.650Z,99928.72
2017-08-18T13:39:48.152Z,99930.00
2017-08-18T13:42:15.651Z,99929.88
2017-08-18T13:44:43.103Z,99930.08
2017-08-18T13:47:10.585Z,99943.81
2017-08-18T13:49:38.172Z,99955.84
2017-08-18T13:52:05.681Z,99970.03
2017-08-18T13:54:33.166Z,99977.09
2017-08-18T13:57:00.697Z,100000.06
2017-08-18T13:59:28.256Z,100005.95
2017-08-18T14:01:56.023Z,100032.45
2017-08-18T14:04:23.503Z,100037.41
2017-08-18T14:06:51.048Z,100034.16
2017-08-18T14:09:18.593Z,100033.20
2017-08-18T14:11:46.059Z,100056.14
2017-08-18T14:14:13.611Z,100081.80
2017-08-18T14:16:41.067Z,100097.74
2017-08-18T14:19:08.625Z,100103.48
2017-08-18T14:21:36.183Z,100138.75
2017-08-18T14:24:03.639Z,100152.28
2017-08-18T14:26:37.134Z,100128.48
2017-08-18T14:29:04.681Z,100110.55
2017-08-18T14:31:32.272Z,100091.61
2017-08-18T14:33:59.831Z,100084.19
2017-08-18T14:36:27.410Z,100078.66
2017-08-18T14:38:55.232Z,100071.89
2017-08-18T14:41:22.735Z,100075.27
2017-08-18T14:43:50.184Z,100080.80
2017-08-18T14:46:17.658Z,100085.91
2017-08-18T14:48:45.120Z,100100.08
2017-08-18T14:51:12.882Z,100099.19
2017-08-18T14:53:40.399Z,100118.10
2017-08-18T14:56:07.953Z,100132.29
2017-08-18T14:58:35.509Z,100135.05
2017-08-18T15:01:03.063Z,100137.02
2017-08-18T15:03:31.101Z,100146.13
2017-08-18T15:05:58.557Z,100144.52
2017-08-18T15:08:26.031Z,100152.04
2017-08-18T15:10:53.484Z,100143.98
2017-08-18T15:13:21.077Z,100149.23
2017-08-18T15:15:48.533Z,100146.10
2017-08-18T15:18:16.140Z,100144.41
2017-08-18T15:20:43.651Z,100148.97
2017-08-18T15:23:11.148Z,100144.30
2017-08-18T15:25:38.607Z,100139.36
2017-08-18T15:28:06.084Z,100138.36
2017-08-18T15:30:33.567Z,100137.89
2017-08-18T15:33:01.047Z,100153.70
2017-08-18T15:35:28.580Z,100153.03
2017-08-18T15:37:56.086Z,100162.23
2017-08-18T15:40:23.593Z,100165.36
2017-08-18T15:42:51.182Z,100172.55
2017-08-18T15:45:18.632Z,100168.16
2017-08-18T15:47:46.115Z,100162.10
2017-08-18T15:50:13.631Z,100163.55
2017-08-18T15:52:41.094Z,100154.05
2017-08-18T15:55:08.634Z,100160.06
2017-08-18T15:57:36.097Z,100165.64
2017-08-18T16:00:03.654Z,100164.34
2017-08-18T16:02:31.212Z,100155.40
2017-08-18T16:04:58.791Z,100159.16
2017-08-18T16:07:26.570Z,100165.82
2017-08-18T16:09:54.094Z,100166.91
2017-08-18T16:12:21.567Z,100172.70
2017-08-18T16:14:49.069Z,100178.08
2017-08-18T16:17:16.515Z,100178.65
2017-08-18T16:19:43.980Z,100180.85
2017-08-18T16:22:11.499Z,100183.96
2017-08-18T16:24:39.037Z,100188.23
2017-08-18T16:27:06.493Z,100191.46
2017-08-18T16:29:33.963Z,100185.92
2017-08-18T16:32:02.061Z,100190.36
2017-08-18T16:34:29.634Z,100190.34
2017-08-18T16:36:57.111Z,100193.08
2017-08-18T16:39:24.576Z,100191.62
2017-08-18T16:41:52.055Z,100189.86
2017-08-18T16:44:19.610Z,100190.38
2017-08-18T16:46:47.075Z,100186.80
2017-08-18T16:49:14.537Z,100194.86
2017-08-18T16:51:42.092Z,100190.24
2017-08-18T16:54:09.549Z,100193.10
2017-08-18T16:56:37.115Z,100186.20
2017-08-18T16:59:04.652Z,100180.61
2017-08-18T17:01:32.207Z,100168.32
2017-08-18T17:03:59.680Z,100172.22
2017-08-18T17:06:27.281Z,100182.78
2017-08-18T17:08:54.800Z,100185.13
2017-08-18T17:11:22.247Z,100174.58
2017-08-18T17:13:49.750Z,100160.20
2017-08-18T17:16:17.297Z,100148.28
2017-08-18T17:18:44.774Z,100144.12
2017-08-18T17:21:12.224Z,100145.66
2017-08-18T17:23:39.912Z,100169.05
2017-08-18T17:26:07.375Z,100186.08
2017-08-18T17:28:34.957Z,100204.52
2017-08-18T17:31:02.417Z,100191.80
2017-08-18T17:33:29.999Z,100155.29
2017-08-18T17:35:57.553Z,100178.48
2017-08-18T17:38:25.076Z,100182.46
2017-08-18T17:40:52.545Z,100172.70
2017-08-18T17:43:20.044Z,100180.16
2017-08-18T17:45:47.520Z,100203.54
2017-08-18T17:48:15.243Z,100216.05
2017-08-18T17:50:42.739Z,100214.33
2017-08-18T17:53:10.195Z,100217.38
2017-08-18T17:55:37.667Z,100230.97
2017-08-18T17:58:05.126Z,100236.20
2017-08-18T18:00:32.604Z,100231.44
2017-08-18T18:03:00.059Z,100249.80
2017-08-18T18:05:27.566Z,100260.25
2017-08-18T18:07:55.022Z,100252.17
2017-08-18T18:10:22.509Z,100243.11
2017-08-18T18:12:50.119Z,100246.28
2017-08-18T18:15:17.601Z,100259.10
2017-08-18T18:17:45.085Z,100255.66
2017-08-18T18:20:12.558Z,100232.59
2017-08-18T18:22:40.084Z,100237.44
2017-08-18T18:25:07.676Z,100233.66
2017-08-18T18:27:35.198Z,100233.18
2017-08-18T18:30:02.660Z,100231.61
2017-08-18T18:32:30.131Z,100238.62
2017-08-18T18:34:57.616Z,100244.42
2017-08-18T18:37:25.170Z,100253.44
2017-08-18T18:39:52.675Z,100261.09
2017-08-18T18:42:20.153Z,100272.78
2017-08-18T18:44:47.635Z,100271.64
2017-08-18T18:47:15.197Z,100276.92
2017-08-18T18:49:42.806Z,100286.47
2017-08-18T18:52:10.290Z,100288.98
2017-08-18T18:54:37.740Z,100286.92
2017-08-18T18:57:05.216Z,100284.88
2017-08-18T18:59:32.664Z,100289.16
2017-08-18T19:02:00.265Z,100291.09
2017-08-18T19:04:27.795Z,100297.95
2017-08-18T19:06:55.262Z,100302.59
2017-08-18T19:09:22.814Z,100304.50
2017-08-18T19:11:50.373Z,100302.73
2017-08-18T19:14:17.947Z,100302.59
2017-08-18T19:16:45.490Z,100305.81
2017-08-18T19:19:13.049Z,100319.18
2017-08-18T19:21:40.507Z,100315.67
2017-08-18T19:24:08.015Z,100304.27
2017-08-18T19:26:35.459Z,100305.52
2017-08-18T19:29:02.947Z,100316.44
2017-08-18T19:31:30.414Z,100314.50
2017-08-18T19:33:58.010Z,100323.88
2017-08-18T19:36:25.477Z,100332.81
2017-08-18T19:38:52.958Z,100335.13
2017-08-18T19:41:20.557Z,100336.14
2017-08-18T19:43:48.015Z,100334.84
2017-08-18T19:46:15.701Z,100336.09
2017-08-18T19:48:43.547Z,100340.31
2017-08-18T19:51:11.039Z,100348.58
2017-08-18T19:53:39.505Z,100344.72
2017-08-18T19:56:07.516Z,100339.38
2017-08-18T19:58:35.044Z,100340.27
2017-08-18T20:01:02.707Z,100346.50
2017-08-18T20:03:30.288Z,100350.80
2017-08-18T20:05:57.850Z,100340.89
2017-08-18T20:08:26.123Z,100344.70
2017-08-18T20:10:53.944Z,100341.19
2017-08-18T20:13:21.556Z,100344.92
2017-08-18T20:15:49.065Z,100358.06
2017-08-18T20:18:17.119Z,100356.92
2017-08-18T20:20:44.940Z,100360.51
2017-08-18T20:23:12.946Z,100364.23
2017-08-18T20:25:40.675Z,100365.44
2017-08-18T20:28:08.763Z,100364.99
2017-08-18T20:30:36.305Z,100367.35
2017-08-18T20:33:04.956Z,100363.02
2017-08-18T20:35:32.617Z,100361.56
2017-08-18T20:38:00.086Z,100360.46
2017-08-18T20:40:27.917Z,100367.30
2017-08-18T20:42:55.424Z,100367.64
2017-08-18T20:45:22.869Z,100368.17
2017-08-18T20:47:52.359Z,100376.91
2017-08-18T20:50:19.871Z,100373.63
2017-08-18T20:52:58.113Z,100363.20
2017-08-18T20:55:27.311Z,100374.73
2017-08-18T20:57:54.870Z,100381.56
2017-08-18T21:00:22.468Z,100378.55
2017-08-18T21:02:49.986Z,100366.87
2017-08-18T21:05:17.511Z,100362.30
2017-08-18T21:07:45.290Z,100353.75
2017-08-18T21:10:12.996Z,100357.73
2017-08-18T21:12:40.624Z,100356.33
2017-08-18T21:15:08.364Z,100360.48
2017-08-18T21:17:35.825Z,100365.80
2017-08-18T21:20:03.551Z,100364.30
2017-08-18T21:22:31.059Z,100359.37
2017-08-18T21:24:58.620Z,100364.88
2017-08-18T21:27:26.229Z,100364.48
2017-08-18T21:29:53.734Z,100369.66
2017-08-18T21:32:21.852Z,100372.64
2017-08-18T21:34:49.364Z,100379.34
2017-08-18T21:37:16.822Z,100384.00
2017-08-18T21:39:44.276Z,100386.69
2017-08-18T21:42:11.849Z,100396.91
2017-08-18T21:44:39.420Z,100392.53
2017-08-18T21:47:06.952Z,100399.05
2017-08-18T21:49:34.507Z,100407.58
2017-08-18T21:52:02.069Z,100404.31
2017-08-18T21:54:29.536Z,100420.52
2017-08-18T21:56:57.108Z,100416.77
2017-08-18T21:59:24.597Z,100420.47
2017-08-18T22:01:52.075Z,100404.12
2017-08-18T22:04:19.545Z,100402.38
2017-08-18T22:06:47.107Z,100394.02
2017-08-18T22:09:14.597Z,100397.75
2017-08-18T22:11:42.068Z,100405.52
2017-08-18T22:14:09.514Z,100408.11
2017-08-18T22:16:37.068Z,100411.38
2017-08-18T22:19:04.526Z,100419.55
2017-08-18T22:21:31.972Z,100422.53
2017-08-18T22:23:59.460Z,100420.48
2017-08-18T22:26:26.972Z,100418.98
2017-08-18T22:28:54.463Z,100429.81
2017-08-18T22:31:21.911Z,100432.29
2017-08-18T22:33:49.445Z,100434.75
2017-08-18T22:36:17.003Z,100440.83
2017-08-18T22:38:44.510Z,100448.18
2017-08-18T22:41:11.967Z,100452.08
2017-08-18T22:43:39.451Z,100454.47
2017-08-18T22:46:06.945Z,100456.19
2017-08-18T22:48:34.492Z,100455.73
2017-08-18T22:51:01.985Z,100458.45
2017-08-18T22:53:29.500Z,100456.53
2017-08-18T22:55:57.099Z,100457.77
2017-08-18T22:58:24.573Z,100464.30
2017-08-18T23:00:52.048Z,100459.51
2017-08-18T23:03:19.491Z,100453.77
2017-08-18T23:05:46.999Z,100461.42
2017-08-18T23:08:14.511Z,100462.31
2017-08-18T23:10:42.015Z,100474.90
2017-08-18T23:13:09.473Z,100475.67
2017-08-18T23:15:36.940Z,100472.19
2017-08-18T23:18:04.412Z,100477.23
2017-08-18T23:20:31.893Z,100479.27
2017-08-18T23:22:59.376Z,100479.23
2017-08-18T23:25:26.863Z,100477.02
2017-08-18T23:27:54.331Z,100482.19
2017-08-18T23:30:21.914Z,100480.27
2017-08-18T23:32:49.447Z,100483.70
2017-08-18T23:35:16.911Z,100490.41
2017-08-18T23:37:44.427Z,100485.61
2017-08-18T23:40:11.895Z,100490.44
2017-08-18T23:42:39.462Z,100498.52
2017-08-18T23:45:07.035Z,100498.42
2017-08-18T23:47:34.573Z,100501.66
2017-08-18T23:50:02.024Z,100503.55
2017-08-18T23:52:29.514Z,100506.60
2017-08-18T23:54:57.453Z,100503.14
2017-08-18T23:57:25.013Z,100507.13
2017-08-18T23:59:52.497Z,100503.20
